CD170 EDFH-EDRN
Flight info
| Callsign | CD170 |
|---|---|
| Flight time | 0h -7m |
| Altitude | 3000 |
| Route | / |
| Aircraft | C402/L-V/N |
Departure
| Time | 2026-04-28 16:27 |
|---|---|
| Airport | Frankfurt-Hahn Airport (EDFH) |
Arrival
| Time | 2026-04-28 16:19 |
|---|---|
| Airport | Nannhausen Airfield (EDRN) |
| Time | Latitude | Longitude | Altitude | Speed | Heading |
|---|---|---|---|---|---|
| 2026-04-28 16:19 | 49.94141 | 7.26275 | 1653 ft | 0 kts | 130° |
| 2026-04-28 16:22 | 49.94139 | 7.26253 | 1653 ft | 5 kts | 275° |
| 2026-04-28 16:22 | 49.94108 | 7.26189 | 1658 ft | 14 kts | 222° |
| 2026-04-28 16:22 | 49.93989 | 7.26054 | 1668 ft | 29 kts | 214° |
| 2026-04-28 16:22 | 49.93831 | 7.25873 | 1658 ft | 19 kts | 247° |
| 2026-04-28 16:23 | 49.93869 | 7.25709 | 1663 ft | 15 kts | 301° |
| 2026-04-28 16:23 | 49.93880 | 7.25681 | 1659 ft | 0 kts | 301° |
| 2026-04-28 16:24 | 49.93885 | 7.25671 | 1659 ft | 9 kts | 308° |
| 2026-04-28 16:25 | 49.93939 | 7.25551 | 1658 ft | 13 kts | 320° |
| 2026-04-28 16:25 | 49.94026 | 7.25565 | 1663 ft | 19 kts | 36° |
| 2026-04-28 16:25 | 49.94297 | 7.25842 | 1656 ft | 73 kts | 33° |
| 2026-04-28 16:25 | 49.94838 | 7.26355 | 1692 ft | 104 kts | 34° |
| 2026-04-28 16:26 | 49.95493 | 7.26981 | 1824 ft | 115 kts | 34° |
| 2026-04-28 16:26 | 49.96192 | 7.27593 | 1955 ft | 112 kts | 34° |
| 2026-04-28 16:26 | 49.96942 | 7.28227 | 1920 ft | 125 kts | 36° |
| 2026-04-28 16:26 | 49.97667 | 7.28911 | 2134 ft | 121 kts | 34° |
| 2026-04-28 16:27 | 49.98379 | 7.29546 | 2277 ft | 117 kts | 34° |
| 2026-04-28 16:27 | 49.99112 | 7.30230 | 2312 ft | 123 kts | 37° |
| 2026-04-28 16:27 | 50.00519 | 7.31511 | 2346 ft | 112 kts | 38° |
| 2026-04-28 16:28 | 50.01184 | 7.32132 | 2389 ft | 112 kts | 37° |
| 2026-04-28 16:28 | 50.01637 | 7.32553 | 2419 ft | 113 kts | 35° |
| 2026-04-28 16:28 | 50.02524 | 7.33391 | 2432 ft | 113 kts | 36° |
| 2026-04-28 16:28 | 50.03205 | 7.33982 | 2433 ft | 110 kts | 35° |
| 2026-04-28 16:29 | 50.04505 | 7.35224 | 2469 ft | 107 kts | 41° |
| 2026-04-28 16:29 | 50.05887 | 7.36620 | 2629 ft | 134 kts | 37° |
| 2026-04-28 16:30 | 50.06687 | 7.37455 | 2644 ft | 143 kts | 43° |
| 2026-04-28 16:30 | 50.07363 | 7.38555 | 2669 ft | 140 kts | 59° |
| 2026-04-28 16:30 | 50.07349 | 7.39908 | 2873 ft | 138 kts | 107° |
| 2026-04-28 16:30 | 50.06752 | 7.41362 | 2382 ft | 173 kts | 126° |
| 2026-04-28 16:31 | 50.05788 | 7.42412 | 2508 ft | 171 kts | 156° |
| 2026-04-28 16:31 | 50.04592 | 7.42646 | 2542 ft | 177 kts | 171° |
| 2026-04-28 16:31 | 50.03366 | 7.42537 | 2621 ft | 180 kts | 187° |
| 2026-04-28 16:31 | 50.02269 | 7.41531 | 2627 ft | 194 kts | 216° |
| 2026-04-28 16:32 | 50.01165 | 7.40209 | 2641 ft | 201 kts | 216° |
| 2026-04-28 16:32 | 49.98998 | 7.37598 | 2636 ft | 196 kts | 220° |
| 2026-04-28 16:32 | 49.97955 | 7.36196 | 2632 ft | 201 kts | 215° |
| 2026-04-28 16:33 | 49.96759 | 7.35173 | 2613 ft | 195 kts | 186° |
| 2026-04-28 16:33 | 49.96305 | 7.35127 | 2625 ft | 192 kts | 173° |
| 2026-04-28 16:33 | 49.94691 | 7.36899 | 2616 ft | 170 kts | 104° |
| 2026-04-28 16:33 | 49.94608 | 7.38702 | 2636 ft | 168 kts | 89° |
| 2026-04-28 16:34 | 49.94489 | 7.40487 | 2624 ft | 162 kts | 97° |
| 2026-04-28 16:34 | 49.94180 | 7.42143 | 2634 ft | 157 kts | 104° |
| 2026-04-28 16:34 | 49.94313 | 7.43665 | 2474 ft | 145 kts | 58° |
| 2026-04-28 16:34 | 49.95133 | 7.44579 | 2156 ft | 147 kts | 30° |
| 2026-04-28 16:35 | 49.95900 | 7.45225 | 1770 ft | 109 kts | 42° |
| 2026-04-28 16:35 | 49.96342 | 7.45978 | 1551 ft | 83 kts | 62° |
| 2026-04-28 16:35 | 49.96600 | 7.46730 | 1380 ft | 76 kts | 63° |
| 2026-04-28 16:35 | 49.96833 | 7.47353 | 1247 ft | 55 kts | 61° |
| 2026-04-28 16:36 | 49.96926 | 7.47625 | 1246 ft | 23 kts | 56° |
| 2026-04-28 16:36 | 49.97012 | 7.47834 | 1241 ft | 27 kts | 57° |
| 2026-04-28 16:36 | 49.97075 | 7.48015 | 1246 ft | 5 kts | 232° |
| 2026-04-28 16:36 | 49.97060 | 7.47980 | 1241 ft | 0 kts | 240° |
| 2026-04-28 16:37 | 49.96961 | 7.47748 | 1246 ft | 51 kts | 236° |
| 2026-04-28 16:38 | 49.96345 | 7.45939 | 1406 ft | 123 kts | 238° |
| 2026-04-28 16:38 | 49.95920 | 7.44738 | 1773 ft | 133 kts | 250° |
| 2026-04-28 16:38 | 49.95551 | 7.43368 | 2076 ft | 148 kts | 247° |
| 2026-04-28 16:38 | 49.95128 | 7.41917 | 2476 ft | 152 kts | 251° |
| 2026-04-28 16:39 | 49.94865 | 7.40288 | 2881 ft | 151 kts | 257° |
| 2026-04-28 16:39 | 49.94467 | 7.38786 | 3219 ft | 156 kts | 250° |
| 2026-04-28 16:39 | 49.94463 | 7.37124 | 3422 ft | 160 kts | 286° |
| 2026-04-28 16:39 | 49.94687 | 7.35422 | 3491 ft | 165 kts | 288° |
| 2026-04-28 16:40 | 49.95209 | 7.33931 | 3549 ft | 151 kts | 317° |
| 2026-04-28 16:40 | 49.95960 | 7.32995 | 3543 ft | 131 kts | 351° |
| 2026-04-28 16:40 | 49.96797 | 7.33073 | 3516 ft | 120 kts | 21° |
| 2026-04-28 16:40 | 49.97568 | 7.33357 | 3689 ft | 99 kts | 26° |
| 2026-04-28 16:41 | 49.98221 | 7.33505 | 3727 ft | 111 kts | 353° |
| 2026-04-28 16:41 | 49.98954 | 7.33272 | 3721 ft | 103 kts | 22° |
| 2026-04-28 16:41 | 49.99663 | 7.33520 | 3705 ft | 106 kts | 21° |
| 2026-04-28 16:41 | 50.00306 | 7.33986 | 3738 ft | 100 kts | 37° |
| 2026-04-28 16:42 | 50.00897 | 7.34479 | 3651 ft | 95 kts | 38° |
| 2026-04-28 16:42 | 50.01501 | 7.34985 | 3314 ft | 107 kts | 36° |
| 2026-04-28 16:42 | 50.02193 | 7.35625 | 2865 ft | 118 kts | 39° |
| 2026-04-28 16:42 | 50.02878 | 7.36263 | 2669 ft | 111 kts | 35° |
| 2026-04-28 16:43 | 50.03508 | 7.36859 | 2622 ft | 100 kts | 34° |
| 2026-04-28 16:43 | 50.04151 | 7.36657 | 2614 ft | 107 kts | 317° |
| 2026-04-28 16:43 | 50.04196 | 7.35558 | 2567 ft | 106 kts | 235° |
| 2026-04-28 16:43 | 50.03663 | 7.34842 | 2584 ft | 103 kts | 200° |
| 2026-04-28 16:44 | 50.02952 | 7.34189 | 2702 ft | 136 kts | 204° |
| 2026-04-28 16:44 | 50.02105 | 7.33435 | 2599 ft | 146 kts | 201° |
| 2026-04-28 16:44 | 50.01203 | 7.32672 | 2442 ft | 143 kts | 203° |
| 2026-04-28 16:44 | 50.00366 | 7.31873 | 2435 ft | 142 kts | 208° |
| 2026-04-28 16:45 | 49.99568 | 7.30965 | 2395 ft | 140 kts | 208° |
| 2026-04-28 16:45 | 49.98785 | 7.30162 | 2263 ft | 128 kts | 205° |
| 2026-04-28 16:45 | 49.98061 | 7.29461 | 2235 ft | 121 kts | 205° |
| 2026-04-28 16:45 | 49.97307 | 7.28881 | 2222 ft | 124 kts | 195° |
| 2026-04-28 16:46 | 49.96610 | 7.28078 | 2349 ft | 131 kts | 224° |
| 2026-04-28 16:46 | 49.95953 | 7.27024 | 2467 ft | 140 kts | 218° |
| 2026-04-28 16:46 | 49.95280 | 7.25960 | 2607 ft | 135 kts | 215° |
| 2026-04-28 16:46 | 49.94583 | 7.24995 | 2737 ft | 134 kts | 216° |
| 2026-04-28 16:47 | 49.93871 | 7.23994 | 2852 ft | 143 kts | 218° |
| 2026-04-28 16:47 | 49.93136 | 7.22965 | 3027 ft | 143 kts | 217° |
| 2026-04-28 16:47 | 49.92421 | 7.21904 | 3027 ft | 141 kts | 219° |
| 2026-04-28 16:47 | 49.91729 | 7.20794 | 2940 ft | 144 kts | 221° |
| 2026-04-28 16:48 | 49.91062 | 7.19657 | 2957 ft | 140 kts | 223° |
| 2026-04-28 16:48 | 49.90433 | 7.18479 | 2917 ft | 144 kts | 230° |
| 2026-04-28 16:48 | 49.89672 | 7.17794 | 2946 ft | 117 kts | 166° |
| 2026-04-28 16:48 | 49.89061 | 7.18405 | 2714 ft | 100 kts | 99° |
| 2026-04-28 16:49 | 49.89289 | 7.19322 | 2665 ft | 93 kts | 52° |
| 2026-04-28 16:49 | 49.89675 | 7.20084 | 2724 ft | 91 kts | 57° |
| 2026-04-28 16:49 | 49.90105 | 7.20887 | 2713 ft | 102 kts | 58° |
| 2026-04-28 16:49 | 49.90596 | 7.21773 | 2619 ft | 116 kts | 50° |
| 2026-04-28 16:50 | 49.91221 | 7.22670 | 2435 ft | 125 kts | 44° |
| 2026-04-28 16:50 | 49.91867 | 7.23414 | 2193 ft | 107 kts | 37° |
| 2026-04-28 16:50 | 49.92487 | 7.23999 | 2004 ft | 102 kts | 40° |
| 2026-04-28 16:50 | 49.93148 | 7.24672 | 1796 ft | 127 kts | 34° |
| 2026-04-28 16:51 | 49.93898 | 7.25418 | 1689 ft | 116 kts | 37° |
| 2026-04-28 16:51 | 49.94440 | 7.25952 | 1658 ft | 73 kts | 36° |
| 2026-04-28 16:51 | 49.94775 | 7.26302 | 1646 ft | 46 kts | 35° |
| 2026-04-28 16:51 | 49.95015 | 7.26540 | 1644 ft | 35 kts | 33° |
| 2026-04-28 16:52 | 49.95094 | 7.26694 | 1641 ft | 11 kts | 121° |
| 2026-04-28 16:52 | 49.95054 | 7.26728 | 1641 ft | 0 kts | 174° |
| 2026-04-28 16:52 | 49.95043 | 7.26730 | 1641 ft | 7 kts | 171° |
| 2026-04-28 16:53 | 49.94962 | 7.26768 | 1642 ft | 11 kts | 128° |
| 2026-04-28 16:53 | 49.94920 | 7.26839 | 1642 ft | 6 kts | 117° |
| 2026-04-28 16:53 | 49.94887 | 7.26861 | 1642 ft | 7 kts | 175° |
| 2026-04-28 16:53 | 49.94803 | 7.26826 | 1643 ft | 18 kts | 208° |
| 2026-04-28 16:54 | 49.94711 | 7.26720 | 1645 ft | 18 kts | 216° |
| 2026-04-28 16:54 | 49.94617 | 7.26647 | 1646 ft | 9 kts | 191° |
| 2026-04-28 16:54 | 49.94567 | 7.26639 | 1647 ft | 5 kts | 208° |
| 2026-04-28 16:54 | 49.94551 | 7.26622 | 1647 ft | 3 kts | 214° |
| 2026-04-28 16:55 | 49.94531 | 7.26604 | 1647 ft | 5 kts | 206° |
| 2026-04-28 16:55 | 49.94487 | 7.26564 | 1648 ft | 13 kts | 214° |
| 2026-04-28 16:55 | 49.94410 | 7.26483 | 1649 ft | 12 kts | 212° |
| 2026-04-28 16:55 | 49.94388 | 7.26467 | 1650 ft | 1 kts | 203° |
| 2026-04-28 16:56 | 49.94373 | 7.26467 | 1650 ft | 1 kts | 154° |
| 2026-04-28 16:56 | 49.94356 | 7.26494 | 1650 ft | 3 kts | 127° |
| 2026-04-28 16:56 | 49.94355 | 7.26496 | 1650 ft | 0 kts | 129° |